Time;durP1;ratioP1;P1;durP2;ratioP2;P2;SDS_P1;SDS_P2;PMS_P1;PMS_P2;Temp;Humidity;BMP_temperature;BMP_pressure;BME280_temperature;BME280_humidity;BME280_pressure;Samples;Min_cycle;Max_cycle;Signal;HPM_P1;HPM_P2
2023/01/16 00:01:44;;;;;;;7.53;1.60;;;;;;;5.51;81.98;99325.91;5094318;28;20054;-52
2023/01/16 00:04:10;;;;;;;7.20;1.60;;;;;;;5.42;81.84;99322.44;5093900;28;20108;-50
2023/01/16 00:06:38;;;;;;;8.45;2.47;;;;;;;5.38;82.64;99313.19;5093674;28;20036;-51
2023/01/16 00:09:05;;;;;;;6.38;1.70;;;;;;;5.34;82.94;99304.78;5093491;28;20052;-52
2023/01/16 00:11:32;;;;;;;10.13;2.13;;;;;;;5.26;83.08;99302.13;5093935;28;20040;-51
2023/01/16 00:13:59;;;;;;;6.63;1.45;;;;;;;5.25;83.61;99302.25;5093820;28;20044;-50
2023/01/16 00:16:27;;;;;;;7.90;1.83;;;;;;;5.19;84.19;99295.81;5094007;28;20048;-49
2023/01/16 00:18:54;;;;;;;6.00;1.60;;;;;;;5.09;83.50;99293.28;5093964;28;20043;-51
2023/01/16 00:21:25;;;;;;;7.20;1.92;;;;;;;4.99;84.15;99289.94;5090074;28;20048;-52
2023/01/16 00:23:54;;;;;;;4.63;1.38;;;;;;;5.03;84.35;99287.81;5090454;28;20134;-52
2023/01/16 00:26:21;;;;;;;6.22;1.63;;;;;;;5.01;84.43;99282.72;5093140;28;20077;-51
2023/01/16 00:28:49;;;;;;;9.50;1.77;;;;;;;4.88;85.64;99271.78;5093815;28;20048;-52
2023/01/16 00:31:15;;;;;;;11.68;1.77;;;;;;;4.89;85.29;99268.16;5093381;28;20481;-52
2023/01/16 00:33:42;;;;;;;7.00;1.65;;;;;;;4.75;86.21;99261.69;5093819;28;20052;-51
2023/01/16 00:36:10;;;;;;;5.95;1.65;;;;;;;4.75;86.12;99262.50;5093598;28;20055;-50
2023/01/16 00:38:37;;;;;;;8.07;1.80;;;;;;;4.76;86.28;99250.19;5093641;28;20405;-52
2023/01/16 00:41:04;;;;;;;5.40;1.75;;;;;;;4.80;85.90;99252.38;5093702;28;20085;-50
2023/01/16 00:43:33;;;;;;;6.53;1.73;;;;;;;4.69;86.58;99249.13;5093288;28;20044;-51
2023/01/16 00:45:59;;;;;;;6.72;1.90;;;;;;;4.73;86.29;99251.31;5093565;28;20044;-50
2023/01/16 00:48:26;;;;;;;5.50;1.80;;;;;;;4.68;86.60;99245.69;5092720;28;20039;-50
2023/01/16 00:50:53;;;;;;;6.30;1.83;;;;;;;4.83;87.12;99245.16;5093521;28;20044;-51
2023/01/16 00:53:20;;;;;;;10.30;2.58;;;;;;;4.76;86.49;99235.22;5093524;28;20070;-50
2023/01/16 00:55:47;;;;;;;8.80;2.33;;;;;;;4.63;87.72;99240.06;5093259;28;20047;-51
2023/01/16 00:58:14;;;;;;;10.40;2.55;;;;;;;4.79;86.75;99242.00;5093462;28;20040;-51
2023/01/16 01:00:40;;;;;;;12.63;3.17;;;;;;;4.73;86.99;99239.97;5092995;28;20945;-50
2023/01/16 01:03:07;;;;;;;10.77;2.20;;;;;;;4.72;87.17;99227.81;5093473;28;20051;-50
2023/01/16 01:05:36;;;;;;;9.05;2.20;;;;;;;4.72;87.17;99222.56;5093374;28;20044;-50
2023/01/16 01:08:04;;;;;;;12.90;2.08;;;;;;;4.71;86.43;99223.53;5092667;28;20489;-50
2023/01/16 01:10:31;;;;;;;11.52;2.20;;;;;;;4.76;86.98;99216.03;5091982;28;20044;-51
2023/01/16 01:12:58;;;;;;;7.22;2.03;;;;;;;4.73;86.74;99216.31;5092970;28;20509;-50
2023/01/16 01:15:25;;;;;;;11.15;2.22;;;;;;;4.70;87.74;99206.16;5093432;28;20559;-50
2023/01/16 01:17:51;;;;;;;10.98;2.00;;;;;;;4.75;86.80;99198.63;5093036;28;20089;-50
2023/01/16 01:20:18;;;;;;;11.20;2.15;;;;;;;4.73;86.07;99198.78;5093140;28;20054;-50
2023/01/16 01:22:46;;;;;;;8.27;1.95;;;;;;;4.73;85.68;99184.81;5092871;28;20048;-50
2023/01/16 01:25:13;;;;;;;9.60;1.88;;;;;;;4.73;85.22;99190.06;5093385;28;20044;-50
2023/01/16 01:27:39;;;;;;;10.13;2.35;;;;;;;4.72;85.48;99185.78;5092941;28;20119;-50
2023/01/16 01:30:08;;;;;;;6.97;1.70;;;;;;;4.70;85.94;99175.44;5093220;28;20180;-49
2023/01/16 01:32:36;;;;;;;7.88;1.80;;;;;;;4.64;85.67;99164.72;5093027;28;20070;-49
2023/01/16 01:35:05;;;;;;;9.38;2.00;;;;;;;4.78;85.62;99172.88;5093160;28;20051;-49
2023/01/16 01:37:33;;;;;;;5.03;1.60;;;;;;;4.76;86.31;99164.31;5096677;28;20040;-51
2023/01/16 01:39:59;;;;;;;7.00;1.63;;;;;;;4.77;85.81;99165.16;5096928;28;20036;-51
2023/01/16 01:42:57;;;;;;;8.77;1.80;;;;;;;4.94;84.92;99155.53;5096578;28;20123;-51
2023/01/16 01:45:20;;;;;;;8.10;1.67;;;;;;;5.00;85.18;99153.13;5091033;28;20412;-50
2023/01/16 01:47:56;;;;;;;9.77;1.95;;;;;;;5.06;86.21;99153.44;5096761;28;20044;-52
2023/01/16 01:50:47;;;;;;;9.45;1.98;;;;;;;5.18;85.81;99152.19;5096191;28;20052;-53
2023/01/16 01:53:19;;;;;;;9.15;2.00;;;;;;;5.15;86.11;99142.00;5096268;28;20127;-53
2023/01/16 01:55:47;;;;;;;12.68;2.42;;;;;;;5.17;85.01;99151.38;5096229;28;20412;-51
2023/01/16 01:58:21;;;;;;;14.70;2.53;;;;;;;5.21;85.63;99140.56;5095919;28;20066;-53
2023/01/16 02:00:54;;;;;;;10.13;1.98;;;;;;;5.27;85.37;99124.13;5096593;28;20488;-53
2023/01/16 02:03:27;;;;;;;8.23;1.80;;;;;;;5.32;84.81;99108.72;5096203;28;20048;-53
2023/01/16 02:05:57;;;;;;;7.75;2.00;;;;;;;5.33;84.74;99110.34;5096553;28;20062;-53
2023/01/16 02:08:29;;;;;;;7.88;1.80;;;;;;;5.34;85.44;99102.28;5095335;28;20048;-52
2023/01/16 02:11:04;;;;;;;5.75;1.80;;;;;;;5.32;85.27;99098.19;5096194;28;20093;-52
2023/01/16 02:13:31;;;;;;;11.63;1.83;;;;;;;5.25;84.30;99092.75;5096252;28;20047;-52
2023/01/16 02:19:15;;;;;;;6.22;1.60;;;;;;;5.31;84.47;99081.59;5096090;28;20090;-50
2023/01/16 02:25:14;;;;;;;10.52;2.00;;;;;;;5.28;84.63;99058.25;5111180;27;20372;-51
2023/01/16 02:28:21;;;;;;;12.13;2.00;;;;;;;5.29;85.44;99056.44;5110842;28;20447;-51
2023/01/16 02:34:31;;;;;;;8.65;2.33;;;;;;;5.45;84.88;99045.13;5111504;27;20351;-50
2023/01/16 02:37:15;;;;;;;9.30;2.30;;;;;;;5.47;85.00;99033.44;5110902;28;20122;-51
2023/01/16 02:40:09;;;;;;;13.00;2.53;;;;;;;5.41;84.49;99026.22;5111420;28;20393;-51
2023/01/16 02:42:55;;;;;;;8.02;1.70;;;;;;;5.34;85.12;99023.41;5110999;28;20138;-50
2023/01/16 02:45:42;;;;;;;6.88;1.60;;;;;;;5.38;85.54;99016.00;5111036;28;20051;-50
2023/01/16 02:48:24;;;;;;;10.45;1.85;;;;;;;5.39;85.82;99009.78;5110916;28;20039;-50
2023/01/16 02:51:15;;;;;;;9.13;2.58;;;;;;;5.17;86.26;99005.97;5111062;28;20051;-51
2023/01/16 02:53:55;;;;;;;5.50;1.52;;;;;;;5.20;87.06;99000.38;5110455;28;20481;-51
2023/01/16 02:56:30;;;;;;;7.78;1.60;;;;;;;5.14;86.91;98998.41;5109678;28;20044;-52
2023/01/16 02:58:58;;;;;;;14.18;1.90;;;;;;;5.14;86.35;98991.34;5110879;28;20067;-51
2023/01/16 03:01:25;;;;;;;6.35;1.80;;;;;;;5.15;86.87;98979.03;5110772;28;20452;-51
2023/01/16 03:06:42;;;;;;;6.57;1.52;;;;;;;4.98;85.85;98957.97;5110705;27;20384;-52
2023/01/16 03:09:34;;;;;;;5.95;1.60;;;;;;;4.92;86.55;98952.53;5111050;28;20046;-53
2023/01/16 03:15:13;;;;;;;4.25;1.45;;;;;;;4.88;87.00;98938.91;5111411;27;20039;-53
2023/01/16 03:18:05;;;;;;;7.85;1.60;;;;;;;4.90;86.41;98930.84;5110793;28;20051;-52
2023/01/16 03:20:47;;;;;;;6.43;1.67;;;;;;;4.94;86.42;98921.66;5111322;28;20134;-53
2023/01/16 03:23:35;;;;;;;4.25;1.63;;;;;;;4.93;86.77;98912.13;5111109;28;20481;-51
2023/01/16 03:26:09;;;;;;;5.88;1.52;;;;;;;4.85;86.71;98906.88;5111380;28;20117;-53
2023/01/16 03:29:02;;;;;;;5.07;1.45;;;;;;;4.71;86.69;98900.44;5110937;28;20047;-53
2023/01/16 03:31:39;;;;;;;2.38;1.27;;;;;;;4.65;87.05;98893.22;5111182;28;20055;-51
2023/01/16 03:36:56;;;;;;;3.17;1.20;;;;;;;4.77;87.27;98876.97;5132010;27;20129;-51
2023/01/16 03:39:28;;;;;;;3.97;1.30;;;;;;;4.71;87.69;98877.63;5111040;28;20093;-50
2023/01/16 03:42:01;;;;;;;3.80;1.42;;;;;;;4.67;87.11;98871.03;5111073;28;20074;-50
2023/01/16 03:44:32;;;;;;;3.22;1.20;;;;;;;4.71;86.42;98869.75;5111010;28;20048;-49
2023/01/16 03:47:00;;;;;;;2.72;1.50;;;;;;;4.62;87.03;98860.22;5089141;28;20131;-51
2023/01/16 03:49:34;;;;;;;2.63;1.20;;;;;;;4.65;86.95;98851.19;5088748;28;20094;-51
2023/01/16 03:52:04;;;;;;;4.00;1.23;;;;;;;4.67;86.97;98851.84;5089476;28;20045;-52
2023/01/16 03:54:57;;;;;;;2.90;1.40;;;;;;;4.73;85.99;98836.25;5090624;28;20055;-52
2023/01/16 03:57:30;;;;;;;5.97;1.35;;;;;;;4.77;85.32;98836.75;5090044;28;20440;-50
2023/01/16 03:59:59;;;;;;;6.38;1.45;;;;;;;4.70;85.44;98831.31;5090547;28;20054;-50
2023/01/16 04:02:33;;;;;;;3.80;1.70;;;;;;;4.61;86.79;98827.84;5090371;28;20547;-52
2023/01/16 04:05:23;;;;;;;5.40;1.88;;;;;;;4.60;86.40;98815.72;5090546;28;20063;-52
2023/01/16 04:07:57;;;;;;;4.28;1.30;;;;;;;4.60;85.46;98809.63;5089407;28;20044;-51
2023/01/16 04:10:30;;;;;;;6.32;1.27;;;;;;;4.60;86.38;98809.63;5090417;28;20071;-51
2023/01/16 04:13:09;;;;;;;6.15;1.67;;;;;;;4.45;86.61;98788.44;5090294;28;20127;-51
2023/01/16 04:15:41;;;;;;;4.13;1.40;;;;;;;4.49;86.74;98781.88;5090230;28;20040;-52
2023/01/16 04:18:08;;;;;;;3.00;1.30;;;;;;;4.50;87.55;98769.59;5090286;28;20454;-51
2023/01/16 04:20:38;;;;;;;3.08;1.30;;;;;;;4.55;87.53;98757.63;5089905;28;20098;-51
2023/01/16 04:23:04;;;;;;;4.20;1.40;;;;;;;4.49;88.09;98755.63;5090344;28;20446;-50
2023/01/16 04:25:31;;;;;;;5.32;1.40;;;;;;;4.47;88.67;98739.22;5089964;28;20040;-49
2023/01/16 04:27:58;;;;;;;5.82;1.60;;;;;;;4.48;88.87;98729.56;5089880;28;20059;-51
2023/01/16 04:30:24;;;;;;;5.95;1.33;;;;;;;4.57;88.84;98725.94;5089656;28;20444;-50
2023/01/16 04:32:51;;;;;;;5.22;1.40;;;;;;;4.53;88.47;98704.44;5089860;28;20408;-50
2023/01/16 04:35:18;;;;;;;5.63;1.55;;;;;;;4.46;89.68;98697.38;5081761;28;20048;-50
2023/01/16 04:37:46;;;;;;;5.50;1.63;;;;;;;4.50;89.61;98691.63;5069516;28;20048;-51
2023/01/16 04:40:12;;;;;;;8.15;1.73;;;;;;;4.41;90.03;98690.81;5069154;28;20410;-52
2023/01/16 04:42:39;;;;;;;5.88;1.70;;;;;;;4.34;90.86;98681.13;5069174;28;20064;-52
2023/01/16 04:45:06;;;;;;;10.48;2.38;;;;;;;4.44;90.60;98668.69;5069709;28;20064;-50
2023/01/16 04:47:34;;;;;;;7.07;1.95;;;;;;;4.43;90.79;98665.22;5059291;28;20103;-51
2023/01/16 04:50:01;;;;;;;8.93;1.95;;;;;;;4.48;90.74;98656.03;5056233;28;20049;-52
2023/01/16 04:52:27;;;;;;;6.85;2.38;;;;;;;4.55;90.55;98647.31;5056045;28;20495;-52
2023/01/16 04:54:54;;;;;;;10.55;2.45;;;;;;;4.48;91.01;98642.91;5055889;28;20045;-52
2023/01/16 04:57:21;;;;;;;8.82;2.85;;;;;;;4.45;90.44;98624.84;5055597;28;20065;-50
2023/01/16 04:59:47;;;;;;;9.48;2.42;;;;;;;4.42;91.01;98621.56;5055821;28;20128;-51
2023/01/16 05:02:14;;;;;;;6.85;2.67;;;;;;;4.42;91.11;98613.69;5055645;28;20128;-51
2023/01/16 05:04:41;;;;;;;11.20;2.10;;;;;;;4.56;90.00;98604.31;5038107;28;20128;-52
2023/01/16 05:07:07;;;;;;;6.97;2.08;;;;;;;4.45;90.24;98598.59;5037226;28;20379;-51
2023/01/16 05:09:35;;;;;;;8.40;2.03;;;;;;;4.54;90.39;98595.78;5055488;28;20049;-52
2023/01/16 05:12:01;;;;;;;6.57;1.92;;;;;;;4.60;89.73;98582.00;5055262;28;20049;-50
2023/01/16 05:14:28;;;;;;;5.80;1.73;;;;;;;4.59;89.35;98569.84;5055610;28;20083;-52
2023/01/16 05:16:55;;;;;;;8.85;1.90;;;;;;;4.66;88.97;98561.28;5055278;28;20045;-51
2023/01/16 05:19:21;;;;;;;7.38;2.00;;;;;;;4.72;88.50;98568.50;5055780;28;20106;-50
2023/01/16 05:21:48;;;;;;;8.65;2.13;;;;;;;4.71;88.22;98554.56;5055091;28;20399;-51
2023/01/16 05:24:15;;;;;;;8.82;1.70;;;;;;;4.71;88.21;98545.84;5055345;28;20044;-51
2023/01/16 05:26:42;;;;;;;12.52;1.90;;;;;;;4.74;87.52;98533.19;5055196;28;20045;-50
2023/01/16 05:29:08;;;;;;;7.20;1.70;;;;;;;4.70;88.04;98528.44;5055115;28;20045;-52
2023/01/16 05:31:35;;;;;;;8.32;1.88;;;;;;;4.63;88.05;98525.69;5055495;28;20041;-49
2023/01/16 05:34:02;;;;;;;14.52;2.03;;;;;;;4.73;87.87;98521.03;5055091;28;20045;-51
2023/01/16 05:36:29;;;;;;;7.40;1.98;;;;;;;4.79;87.99;98512.47;5054878;28;20075;-52
2023/01/16 05:38:55;;;;;;;6.90;1.63;;;;;;;4.84;87.00;98503.25;5055025;28;20049;-51
2023/01/16 05:41:22;;;;;;;10.02;2.42;;;;;;;4.78;87.25;98500.34;5055194;28;20051;-51
2023/01/16 05:43:49;;;;;;;7.10;1.88;;;;;;;4.75;87.24;98479.66;5055115;28;20068;-51
2023/01/16 05:46:15;;;;;;;7.72;2.15;;;;;;;4.76;86.67;98483.09;5051850;28;20029;-51
2023/01/16 05:48:43;;;;;;;9.90;2.28;;;;;;;4.82;86.90;98479.81;5054577;28;20458;-51
2023/01/16 05:51:11;;;;;;;10.30;2.30;;;;;;;4.84;86.51;98466.47;5053514;28;20406;-51
2023/01/16 05:53:38;;;;;;;9.10;2.20;;;;;;;4.84;85.85;98479.59;5054030;28;20045;-52
2023/01/16 05:56:12;;;;;;;14.60;1.80;;;;;;;4.78;86.50;98463.56;5020580;28;20037;-50
2023/01/16 05:58:39;;;;;;;11.32;1.90;;;;;;;4.81;86.02;98454.50;5053226;28;20439;-51
2023/01/16 06:01:05;;;;;;;5.75;1.50;;;;;;;4.78;85.28;98454.84;5054762;28;20083;-51
2023/01/16 06:03:32;;;;;;;7.45;2.00;;;;;;;4.83;85.85;98430.69;5054523;28;20548;-49
2023/01/16 06:06:00;;;;;;;11.32;2.20;;;;;;;4.90;85.78;98431.66;5054619;28;20056;-52
2023/01/16 06:08:27;;;;;;;10.32;2.20;;;;;;;4.91;85.46;98434.09;5053906;28;20047;-49
2023/01/16 06:10:53;;;;;;;10.52;1.95;;;;;;;4.95;85.88;98422.25;5054155;28;20406;-52
2023/01/16 06:13:20;;;;;;;8.35;1.63;;;;;;;4.91;85.53;98420.97;5054286;28;20048;-51
2023/01/16 06:15:47;;;;;;;7.15;1.50;;;;;;;4.91;86.15;98420.97;5054374;28;20111;-51
2023/01/16 06:18:14;;;;;;;9.32;2.03;;;;;;;4.89;85.73;98414.22;5036341;28;20083;-50
2023/01/16 06:20:42;;;;;;;9.75;1.70;;;;;;;4.94;85.76;98410.09;5053985;28;20129;-52
2023/01/16 06:23:09;;;;;;;8.23;1.88;;;;;;;5.05;85.28;98400.97;5054407;28;20457;-51
2023/01/16 06:25:35;;;;;;;8.88;1.70;;;;;;;5.06;85.29;98399.16;5053992;28;20045;-50
2023/01/16 06:28:02;;;;;;;8.20;1.80;;;;;;;5.08;84.35;98381.44;5054096;28;20095;-52
2023/01/16 06:30:29;;;;;;;7.82;1.90;;;;;;;5.12;84.96;98357.22;5053747;28;20559;-51
2023/01/16 06:32:56;;;;;;;6.90;1.80;;;;;;;5.06;85.44;98344.81;5054082;28;20053;-51
2023/01/16 06:35:22;;;;;;;7.55;2.00;;;;;;;5.04;85.85;98338.94;5053629;28;20506;-51
2023/01/16 06:37:49;;;;;;;10.80;1.98;;;;;;;5.00;85.76;98332.38;5053804;28;20494;-51
2023/01/16 06:40:18;;;;;;;7.15;1.98;;;;;;;5.06;85.80;98333.47;5053654;28;20402;-51
2023/01/16 06:42:45;;;;;;;8.27;1.90;;;;;;;5.04;85.08;98331.03;5053051;28;20051;-51
2023/01/16 06:45:11;;;;;;;6.32;2.00;;;;;;;5.05;84.96;98316.09;5053737;28;20047;-52
2023/01/16 06:47:38;;;;;;;7.47;1.67;;;;;;;5.05;85.55;98327.41;5053216;28;20049;-50
2023/01/16 06:50:06;;;;;;;7.03;1.65;;;;;;;5.00;85.35;98314.81;5053281;28;20459;-51
2023/01/16 06:52:34;;;;;;;4.97;1.60;;;;;;;5.01;84.94;98302.47;5035491;28;20045;-51
2023/01/16 06:55:01;;;;;;;9.60;2.03;;;;;;;5.16;84.31;98292.78;5053295;28;20048;-52
2023/01/16 06:57:28;;;;;;;5.05;1.63;;;;;;;5.11;84.48;98278.56;5053286;28;20454;-50
2023/01/16 06:59:54;;;;;;;4.80;1.75;;;;;;;5.14;84.29;98279.03;5053086;28;20063;-51
2023/01/16 07:02:21;;;;;;;8.77;1.75;;;;;;;5.15;84.56;98272.78;5053473;28;20063;-52
2023/01/16 07:04:48;;;;;;;4.95;1.73;;;;;;;5.09;85.79;98267.41;5053270;28;20047;-50
2023/01/16 07:07:15;;;;;;;5.57;2.08;;;;;;;5.13;85.95;98281.81;5061982;28;20215;-49
2023/01/16 07:09:41;;;;;;;7.55;1.80;;;;;;;5.16;85.50;98256.00;5072710;28;20433;-52
2023/01/16 07:12:08;;;;;;;5.10;1.90;;;;;;;5.16;85.28;98247.31;5072653;28;20062;-50
2023/01/16 07:22:56;;;;;;;9.27;2.00;;;;;;;5.09;84.56;98215.66;5072815;28;20505;-50
2023/01/16 07:25:30;;;;;;;5.95;2.00;;;;;;;5.11;84.85;98208.44;5073573;28;20045;-51
2023/01/16 07:27:57;;;;;;;9.60;2.30;;;;;;;5.02;84.75;98199.03;5072613;28;20457;-52
2023/01/16 07:30:24;;;;;;;8.68;2.15;;;;;;;5.14;84.31;98181.78;5073423;28;20051;-52
2023/01/16 07:32:51;;;;;;;7.40;2.42;;;;;;;5.12;83.29;98177.72;5073055;28;20382;-51
2023/01/16 07:35:18;;;;;;;12.52;2.40;;;;;;;5.14;82.85;98175.72;5073055;28;20064;-51
2023/01/16 07:37:45;;;;;;;8.60;2.40;;;;;;;5.23;82.79;98166.75;5073256;28;20044;-51
2023/01/16 07:40:12;;;;;;;10.18;2.92;;;;;;;5.23;82.72;98145.72;5055134;28;20452;-52
2023/01/16 07:42:39;;;;;;;9.18;2.45;;;;;;;5.26;82.89;98137.47;5073087;28;20075;-52
2023/01/16 07:45:06;;;;;;;8.48;2.60;;;;;;;5.12;83.03;98131.22;5072833;28;20040;-52
2023/01/16 07:47:34;;;;;;;8.45;2.60;;;;;;;5.13;83.65;98124.97;5061763;28;20049;-52
2023/01/16 07:50:01;;;;;;;8.05;2.85;;;;;;;5.18;84.48;98114.75;5051947;28;20049;-52
2023/01/16 07:52:28;;;;;;;15.88;2.97;;;;;;;5.12;84.31;98099.69;5052952;28;20398;-51
2023/01/16 07:54:55;;;;;;;10.93;2.90;;;;;;;5.16;84.23;98094.88;5033059;28;20040;-55
2023/01/16 07:57:22;;;;;;;8.18;2.63;;;;;;;5.21;85.49;98107.47;5051984;28;20033;-52
2023/01/16 07:59:49;;;;;;;10.75;3.20;;;;;;;5.16;87.56;98084.34;5052919;28;20045;-52
2023/01/16 08:02:16;;;;;;;9.80;2.70;;;;;;;5.09;88.99;98076.38;5052682;28;20049;-52
2023/01/16 08:04:42;;;;;;;8.65;2.70;;;;;;;5.11;89.17;98063.06;5052831;28;20052;-52
2023/01/16 08:07:09;;;;;;;12.20;2.92;;;;;;;4.95;89.27;98057.03;5052569;28;20049;-51
2023/01/16 08:09:36;;;;;;;13.30;3.05;;;;;;;4.87;89.71;98065.00;5052572;28;20056;-50
2023/01/16 08:12:03;;;;;;;15.20;3.20;;;;;;;4.88;90.43;98045.63;5052586;28;20080;-52
2023/01/16 08:14:30;;;;;;;11.75;3.22;;;;;;;4.92;89.43;98038.19;5052758;28;20410;-50
2023/01/16 08:16:57;;;;;;;10.05;2.83;;;;;;;4.89;89.92;98028.06;5053055;28;20040;-53
2023/01/16 08:19:23;;;;;;;9.38;3.00;;;;;;;5.04;90.88;98039.38;5063722;28;20045;-53
2023/01/16 08:21:50;;;;;;;7.32;2.28;;;;;;;4.98;89.22;98027.78;5059056;28;20057;-53
2023/01/16 08:24:18;;;;;;;7.38;2.50;;;;;;;5.09;89.44;98029.09;5065638;28;20110;-51
2023/01/16 08:26:44;;;;;;;9.95;2.40;;;;;;;5.15;88.18;98014.41;5066601;28;20140;-49
2023/01/16 08:29:11;;;;;;;10.38;2.65;;;;;;;5.26;87.48;98021.00;5050791;28;20107;-52
2023/01/16 08:31:38;;;;;;;10.85;2.63;;;;;;;5.12;87.17;98005.06;5070206;28;20045;-52
2023/01/16 08:34:05;;;;;;;11.27;2.60;;;;;;;5.20;87.02;98006.78;5043191;28;20095;-51
2023/01/16 08:36:31;;;;;;;10.05;2.47;;;;;;;5.12;86.93;97997.19;5069061;28;20051;-51
2023/01/16 08:38:58;;;;;;;7.97;2.38;;;;;;;5.15;87.29;97991.56;5050074;28;20032;-52
2023/01/16 08:52:38;;;;;;;7.15;2.15;;;;;;;5.06;89.57;97963.78;5044472;28;20059;-51
2023/01/16 08:55:06;;;;;;;10.48;2.33;;;;;;;5.09;89.06;97957.34;5069778;28;20082;-50
2023/01/16 08:57:33;;;;;;;9.05;2.97;;;;;;;5.02;89.19;97959.91;5027901;28;20178;-51
2023/01/16 09:00:00;;;;;;;7.30;1.85;;;;;;;4.91;90.17;97949.88;5055572;28;20087;-51
2023/01/16 09:02:28;;;;;;;7.95;2.25;;;;;;;4.94;90.42;97947.69;5012645;28;20359;-52
2023/01/16 09:04:54;;;;;;;7.22;2.10;;;;;;;4.85;90.78;97954.06;5068794;28;20461;-53
2023/01/16 09:07:22;;;;;;;8.88;2.10;;;;;;;4.85;90.21;97948.78;5049131;28;20123;-52
2023/01/16 09:09:48;;;;;;;8.80;2.55;;;;;;;4.88;90.28;97930.03;5058039;28;20049;-52
2023/01/16 09:15:04;;;;;;;4.13;1.52;;;;;;;4.85;89.47;97937.47;5051763;28;20045;-52
2023/01/16 09:17:31;;;;;;;4.82;1.73;;;;;;;4.85;88.76;97926.97;5026480;28;20055;-51
2023/01/16 09:19:58;;;;;;;5.75;1.85;;;;;;;4.94;89.96;97926.66;5050732;28;20102;-52
2023/01/16 09:22:27;;;;;;;7.18;1.60;;;;;;;4.92;88.88;97905.03;5060518;28;20049;-52
2023/01/16 09:24:54;;;;;;;5.88;1.75;;;;;;;4.87;88.29;97930.22;5051566;28;20056;-52
2023/01/16 09:27:20;;;;;;;6.55;1.50;;;;;;;4.84;88.23;97915.66;5070331;28;20397;-51
2023/01/16 09:29:47;;;;;;;9.43;1.80;;;;;;;4.91;88.37;97906.03;5057090;28;20521;-52
2023/01/16 09:32:14;;;;;;;9.07;1.75;;;;;;;4.95;87.38;97923.06;5039544;28;20048;-51
2023/01/16 09:34:41;;;;;;;6.72;1.67;;;;;;;4.90;87.83;97912.28;5037450;28;20041;-52
2023/01/16 09:37:08;;;;;;;8.60;1.95;;;;;;;4.95;88.28;97907.28;5054762;28;20044;-53
2023/01/16 09:39:36;;;;;;;8.85;2.17;;;;;;;4.92;88.33;97909.47;5028286;28;21295;-51
2023/01/16 09:45:16;;;;;;;8.20;1.90;;;;;;;4.95;88.08;97896.78;5046512;28;20191;-52
2023/01/16 09:47:49;;;;;;;8.38;1.80;;;;;;;4.96;87.07;97898.38;5059244;28;20055;-51
2023/01/16 09:50:49;;;;;;;8.32;1.63;;;;;;;5.14;87.12;97894.53;5024448;28;20075;-52
2023/01/16 09:59:29;;;;;;;5.90;1.80;;;;;;;5.01;86.91;97887.34;5038139;28;20036;-50
2023/01/16 10:04:46;;;;;;;4.65;1.50;;;;;;;5.00;86.00;97868.13;5062189;27;20403;-51
2023/01/16 10:07:54;;;;;;;5.43;1.60;;;;;;;4.95;86.10;97873.13;5070705;28;20033;-53
2023/01/16 10:14:00;;;;;;;3.72;1.10;;;;;;;4.84;85.89;97868.38;5085234;27;20376;-53
2023/01/16 10:16:47;;;;;;;5.43;1.42;;;;;;;4.99;84.74;97850.72;5085094;27;20043;-51
2023/01/16 10:19:44;;;;;;;3.05;1.35;;;;;;;4.99;85.41;97840.22;5091960;28;20040;-51
2023/01/16 10:22:27;;;;;;;2.42;1.27;;;;;;;4.98;84.95;97824.63;5108566;28;20035;-51
2023/01/16 10:25:26;;;;;;;5.15;1.58;;;;;;;5.03;85.17;97822.25;5093417;28;20070;-51
2023/01/16 10:28:08;;;;;;;5.38;1.70;;;;;;;5.08;86.53;97819.06;5107108;28;20059;-52
2023/01/16 10:30:44;;;;;;;5.82;1.50;;;;;;;5.06;85.95;97813.19;5079073;28;20036;-51
2023/01/16 10:33:16;;;;;;;6.63;1.60;;;;;;;5.07;85.19;97805.09;5109244;28;20044;-51
2023/01/16 10:35:47;;;;;;;7.55;1.60;;;;;;;5.07;84.79;97799.84;5102172;27;20047;-52
2023/01/16 10:38:42;;;;;;;3.63;1.40;;;;;;;5.12;84.95;97810.59;5115661;27;20044;-51
2023/01/16 10:49:25;;;;;;;5.75;1.27;;;;;;;5.16;83.81;97803.16;5092498;28;20067;-52
2023/01/16 10:49:42;;;;;;;5.63;1.60;;;;;;;5.29;82.85;97784.84;5121512;28;20124;-52
2023/01/16 10:52:08;;;;;;;2.90;1.40;;;;;;;5.22;83.66;97784.00;5089540;28;20149;-52
2023/01/16 10:54:37;;;;;;;3.17;1.27;;;;;;;5.26;82.66;97781.81;5118102;28;20047;-51
2023/01/16 10:57:15;;;;;;;4.07;1.27;;;;;;;5.26;82.65;97784.44;5089266;28;20051;-53
2023/01/16 10:59:46;;;;;;;3.40;1.30;;;;;;;5.16;82.74;97769.81;5094978;28;20035;-52
2023/01/16 11:02:22;;;;;;;4.03;1.55;;;;;;;5.22;82.70;97763.00;5091198;28;20104;-53
2023/01/16 11:04:49;;;;;;;3.20;1.17;;;;;;;5.44;82.27;97752.38;5110431;28;20166;-52
2023/01/16 11:07:19;;;;;;;2.42;1.10;;;;;;;5.37;82.68;97745.28;5104397;28;20044;-50
2023/01/16 11:09:47;;;;;;;3.03;1.40;;;;;;;5.29;81.59;97747.25;5094998;28;20464;-52
2023/01/16 11:18:29;;;;;;;2.60;1.10;;;;;;;5.35;82.87;97721.00;5108822;28;20052;-53
2023/01/16 11:21:00;;;;;;;6.47;1.80;;;;;;;5.42;82.98;97712.31;5078018;28;20043;-52
2023/01/16 11:23:36;;;;;;;6.63;1.67;;;;;;;5.39;82.81;97700.41;5105141;28;20489;-53
2023/01/16 11:26:05;;;;;;;6.45;1.60;;;;;;;5.55;81.66;97700.06;5061857;28;20197;-51
2023/01/16 11:28:32;;;;;;;4.03;1.30;;;;;;;5.47;81.83;97700.22;5095298;28;21311;-52
2023/01/16 11:31:12;;;;;;;4.43;1.60;;;;;;;5.59;81.09;97695.22;5082671;28;20051;-52
2023/01/16 11:33:47;;;;;;;2.88;1.38;;;;;;;5.55;82.56;97694.00;5094879;28;20036;-52
2023/01/16 11:36:18;;;;;;;6.60;1.50;;;;;;;5.62;82.26;97679.06;5073357;28;20132;-53
2023/01/16 11:38:47;;;;;;;4.50;1.40;;;;;;;5.47;82.30;97678.38;5096183;28;20048;-51
2023/01/16 11:41:18;;;;;;;6.82;1.63;;;;;;;5.35;83.12;97667.63;5073514;28;20051;-50
2023/01/16 11:46:57;;;;;;;6.28;1.48;;;;;;;5.55;81.99;97652.72;5046938;28;20500;-52
2023/01/16 11:49:45;;;;;;;8.75;1.45;;;;;;;5.87;82.86;97652.22;5082265;28;20044;-52
2023/01/16 11:52:26;;;;;;;4.22;1.50;;;;;;;6.23;80.82;97638.72;5070092;28;20375;-52
2023/01/16 11:54:58;;;;;;;5.43;1.98;;;;;;;6.12;81.15;97637.50;5086194;28;20054;-51
2023/01/16 11:57:53;;;;;;;4.35;1.58;;;;;;;6.19;82.12;97645.41;5063859;28;20094;-51
2023/01/16 12:00:49;;;;;;;5.38;1.70;;;;;;;6.19;78.60;97634.88;5065713;28;20044;-51
2023/01/16 12:03:56;;;;;;;41.40;12.75;;;;;;;6.08;80.57;97622.31;5092020;28;20042;-52
2023/01/16 12:06:33;;;;;;;7.50;2.08;;;;;;;5.92;82.12;97623.47;5074463;28;20044;-53
2023/01/16 12:09:19;;;;;;;6.18;1.48;;;;;;;5.76;82.23;97614.13;5097637;28;20120;-53
2023/01/16 12:14:17;;;;;;;4.07;1.60;;;;;;;5.68;83.14;97609.09;5075953;28;20138;-53
2023/01/16 12:15:01;;;;;;;5.30;1.58;;;;;;;5.52;82.70;97590.00;5091297;28;20039;-50
2023/01/16 12:17:53;;;;;;;7.72;1.70;;;;;;;5.43;84.56;97582.50;5091647;27;20043;-51
2023/01/16 12:20:27;;;;;;;7.60;1.75;;;;;;;5.39;83.63;97576.84;5072932;28;20098;-52
2023/01/16 12:23:19;;;;;;;5.70;1.73;;;;;;;5.29;84.49;97576.41;5051335;28;20110;-52
2023/01/16 12:26:18;;;;;;;6.72;1.80;;;;;;;5.40;86.57;97570.56;5082585;28;20126;-51
2023/01/16 12:29:16;;;;;;;4.38;1.70;;;;;;;5.39;86.65;97548.72;5069636;28;20047;-51
2023/01/16 12:31:56;;;;;;;5.65;2.03;;;;;;;5.40;87.10;97544.28;5063239;28;20280;-53
2023/01/16 12:34:52;;;;;;;5.65;1.88;;;;;;;5.42;87.07;97538.81;5083440;28;20130;-51
2023/01/16 12:37:50;;;;;;;4.35;1.70;;;;;;;5.33;86.82;97525.88;5041283;28;20509;-50
2023/01/16 12:40:29;;;;;;;6.82;1.98;;;;;;;5.49;86.51;97521.25;5078208;28;20049;-51
2023/01/16 12:43:36;;;;;;;5.60;1.85;;;;;;;5.45;84.95;97497.16;5048309;28;20038;-51
2023/01/16 12:46:13;;;;;;;8.43;2.10;;;;;;;5.46;85.31;97501.44;5065399;28;20044;-53
2023/01/16 12:48:56;;;;;;;6.82;1.95;;;;;;;5.58;88.13;97484.06;5066793;28;20434;-51
2023/01/16 12:51:34;;;;;;;5.97;2.10;;;;;;;5.65;87.72;97480.59;5077847;28;20051;-51
2023/01/16 12:54:41;;;;;;;6.28;2.13;;;;;;;5.53;86.61;97478.59;5088231;28;20071;-53
2023/01/16 12:57:38;;;;;;;9.25;2.10;;;;;;;5.55;86.52;97481.81;5063996;28;20442;-51
2023/01/16 13:00:25;;;;;;;5.70;1.70;;;;;;;5.43;87.42;97475.53;5062532;28;20048;-51
2023/01/16 13:02:59;;;;;;;8.00;2.10;;;;;;;5.46;86.20;97463.81;5072019;28;20039;-53
2023/01/16 13:05:32;;;;;;;7.05;1.92;;;;;;;5.32;85.87;97447.22;5071304;28;20055;-50
2023/01/16 13:08:11;;;;;;;6.88;1.90;;;;;;;5.39;87.85;97450.66;5064961;28;20164;-51
2023/01/16 13:13:36;;;;;;;7.47;2.42;;;;;;;5.10;90.11;97439.50;5071419;28;20506;-53
2023/01/16 13:16:19;;;;;;;7.15;2.30;;;;;;;5.14;92.52;97426.78;5095113;28;20036;-49
2023/01/16 13:18:55;;;;;;;7.35;2.08;;;;;;;5.18;93.44;97420.09;5065161;28;20048;-52
2023/01/16 13:21:27;;;;;;;5.28;1.90;;;;;;;5.13;90.98;97415.47;5071960;28;20132;-53